Time;durP1;ratioP1;P1;durP2;ratioP2;P2;SDS_P1;SDS_P2;PMS_P1;PMS_P2;Temp;Humidity;BMP_temperature;BMP_pressure;BME280_temperature;BME280_humidity;BME280_pressure;Samples;Min_cycle;Max_cycle;Signal;HPM_P1;HPM_P2
2022/05/06 00:02:09;;;;;;;2.70;1.60;;;;;;;12.14;100.00;100925.81;5052662;28;20817;-53
2022/05/06 00:04:36;;;;;;;0.40;0.30;;;;;;;12.27;100.00;100932.59;5052629;28;20455;-53
2022/05/06 00:07:03;;;;;;;0.37;0.23;;;;;;;12.06;100.00;100923.34;5053101;28;20474;-53
2022/05/06 00:09:30;;;;;;;1.13;1.03;;;;;;;12.06;100.00;100933.09;5052203;28;20526;-53
2022/05/06 00:11:57;;;;;;;0.40;0.30;;;;;;;11.88;100.00;100930.91;5052336;28;20477;-53
2022/05/06 00:14:23;;;;;;;0.73;0.73;;;;;;;11.93;100.00;100927.22;5052572;28;20446;-54
2022/05/06 00:16:50;;;;;;;0.40;0.20;;;;;;;12.17;100.00;100928.41;5052279;28;20532;-53
2022/05/06 00:19:16;;;;;;;0.30;0.20;;;;;;;12.32;100.00;100924.47;5051153;28;20481;-53
2022/05/06 00:21:43;;;;;;;0.30;0.20;;;;;;;12.43;100.00;100919.75;5043427;28;20452;-53
2022/05/06 00:24:10;;;;;;;1.30;1.07;;;;;;;12.27;100.00;100927.25;5047532;28;20928;-53
2022/05/06 00:26:37;;;;;;;0.43;0.43;;;;;;;12.08;100.00;100931.31;5051846;28;20502;-54
2022/05/06 00:29:03;;;;;;;0.30;0.20;;;;;;;11.91;100.00;100930.81;5052163;28;20451;-53
2022/05/06 00:31:30;;;;;;;0.40;0.40;;;;;;;11.93;100.00;100932.56;5052334;28;20509;-54
2022/05/06 00:33:57;;;;;;;0.33;0.20;;;;;;;11.87;100.00;100924.69;5054728;28;20459;-53
2022/05/06 00:36:23;;;;;;;0.30;0.20;;;;;;;11.94;100.00;100928.09;5053545;28;20517;-53
2022/05/06 00:38:50;;;;;;;0.93;0.93;;;;;;;11.94;100.00;100922.78;5047928;28;20454;-53
2022/05/06 00:41:17;;;;;;;2.00;2.00;;;;;;;11.90;100.00;100929.06;5052099;28;20466;-53
2022/05/06 00:43:45;;;;;;;0.30;0.20;;;;;;;11.84;100.00;100927.44;5038634;28;20505;-54
2022/05/06 00:46:17;;;;;;;0.57;0.57;;;;;;;11.90;100.00;100929.06;5052110;28;20544;-53
2022/05/06 00:48:46;;;;;;;0.30;0.20;;;;;;;11.97;100.00;100928.03;5051821;28;20494;-53
2022/05/06 00:51:14;;;;;;;0.30;0.20;;;;;;;11.77;100.00;100936.44;5051189;28;20481;-53
2022/05/06 00:53:43;;;;;;;2.33;2.00;;;;;;;11.76;100.00;100924.91;5038291;28;20451;-53
2022/05/06 00:56:12;;;;;;;0.67;0.67;;;;;;;11.66;100.00;100922.50;5052019;28;20506;-53
2022/05/06 00:58:39;;;;;;;0.50;0.50;;;;;;;11.57;100.00;100929.78;5052071;28;20450;-53
2022/05/06 01:01:06;;;;;;;0.63;0.63;;;;;;;11.38;100.00;100935.56;5051914;28;20478;-53
2022/05/06 01:03:33;;;;;;;0.30;0.20;;;;;;;11.39;100.00;100931.97;5051774;28;20455;-53
2022/05/06 01:06:06;;;;;;;0.30;0.20;;;;;;;11.47;100.00;100930.00;5050599;28;20521;-53
2022/05/06 01:08:34;;;;;;;5.20;1.27;;;;;;;11.53;100.00;100932.56;5031889;28;20448;-54
2022/05/06 01:11:01;;;;;;;0.73;0.73;;;;;;;11.67;100.00;100933.13;5045836;28;20473;-53
2022/05/06 01:13:28;;;;;;;0.30;0.20;;;;;;;11.57;100.00;100934.22;5051706;28;20451;-53
2022/05/06 01:15:55;;;;;;;0.70;0.57;;;;;;;11.50;100.00;100928.16;5051853;28;20467;-53
2022/05/06 01:18:23;;;;;;;0.93;0.93;;;;;;;11.21;100.00;100936.75;5051821;28;20496;-53
2022/05/06 01:20:51;;;;;;;0.30;0.20;;;;;;;11.39;100.00;100932.84;5050033;28;20450;-53
2022/05/06 01:23:22;;;;;;;0.47;0.47;;;;;;;11.51;100.00;100923.69;5040163;28;20450;-54
2022/05/06 01:25:49;;;;;;;0.40;0.30;;;;;;;11.15;100.00;100936.91;5051560;28;20547;-53
2022/05/06 01:28:16;;;;;;;0.30;0.20;;;;;;;11.24;100.00;100935.84;5051624;28;20490;-53
2022/05/06 01:30:48;;;;;;;0.40;0.37;;;;;;;11.42;100.00;100935.44;5051894;28;20447;-53
2022/05/06 01:33:16;;;;;;;0.40;0.40;;;;;;;11.46;100.00;100937.13;5051508;28;20816;-54
2022/05/06 01:35:54;;;;;;;0.33;0.27;;;;;;;11.33;100.00;100930.31;5061340;28;20460;-53
2022/05/06 01:38:46;;;;;;;0.40;0.30;;;;;;;11.10;100.00;100933.47;5043751;28;20493;-53
2022/05/06 01:41:16;;;;;;;0.40;0.30;;;;;;;10.71;100.00;100940.44;5025942;28;20467;-53
2022/05/06 01:43:46;;;;;;;0.30;0.20;;;;;;;10.74;100.00;100950.13;5038514;28;20483;-53
2022/05/06 01:46:14;;;;;;;1.93;1.90;;;;;;;11.03;100.00;100936.28;5051298;28;20540;-53
2022/05/06 01:48:46;;;;;;;0.40;0.30;;;;;;;11.09;100.00;100938.81;5051365;28;20446;-53
2022/05/06 01:51:17;;;;;;;0.40;0.20;;;;;;;10.99;100.00;100935.47;5051635;28;20573;-53
2022/05/06 01:53:44;;;;;;;0.30;0.20;;;;;;;10.71;100.00;100945.75;5033536;28;20447;-53
2022/05/06 01:56:12;;;;;;;0.90;0.90;;;;;;;10.47;100.00;100943.53;5043086;28;20463;-54
2022/05/06 01:58:38;;;;;;;0.57;0.57;;;;;;;10.41;100.00;100951.59;5051482;28;20504;-53
2022/05/06 02:01:05;;;;;;;0.30;0.20;;;;;;;10.55;100.00;100938.94;5051852;28;21013;-55
2022/05/06 02:06:17;;;;;;;0.40;0.30;;;;;;;10.19;100.00;100941.31;5054685;28;20494;-53
2022/05/06 02:08:44;;;;;;;0.30;0.20;;;;;;;10.16;100.00;100944.03;5055006;28;20512;-53
2022/05/06 02:11:11;;;;;;;0.30;0.20;;;;;;;10.09;100.00;100942.38;5054750;28;20451;-53
2022/05/06 02:13:38;;;;;;;0.40;0.30;;;;;;;10.00;100.00;100943.38;5054772;28;20480;-53
2022/05/06 02:16:05;;;;;;;0.40;0.40;;;;;;;10.09;100.00;100940.59;5054775;28;20467;-53
2022/05/06 02:18:32;;;;;;;0.60;0.60;;;;;;;10.21;100.00;100938.63;5054731;28;20504;-54
2022/05/06 02:20:59;;;;;;;0.83;0.83;;;;;;;9.93;100.00;100946.16;5054754;28;20943;-54
2022/05/06 02:23:26;;;;;;;2.43;2.30;;;;;;;9.74;100.00;100943.78;5045236;28;20451;-54
2022/05/06 02:25:53;;;;;;;0.30;0.20;;;;;;;9.75;100.00;100945.56;5050888;28;20522;-55
2022/05/06 02:28:20;;;;;;;0.40;0.30;;;;;;;9.65;100.00;100935.97;5054753;28;20509;-54
2022/05/06 02:33:32;;;;;;;0.30;0.20;;;;;;;9.46;100.00;100943.31;5054164;28;20943;-54
2022/05/06 02:35:59;;;;;;;0.30;0.20;;;;;;;9.45;100.00;100940.66;5061887;28;20466;-54
2022/05/06 02:38:27;;;;;;;0.30;0.20;;;;;;;9.48;100.00;100940.63;5045833;28;20451;-55
2022/05/06 02:40:55;;;;;;;0.93;0.93;;;;;;;9.29;100.00;100941.75;5053634;28;20447;-55
2022/05/06 02:43:22;;;;;;;0.30;0.20;;;;;;;9.27;100.00;100948.84;5041350;28;20455;-54
2022/05/06 02:45:48;;;;;;;0.30;0.20;;;;;;;9.43;100.00;100958.38;5052739;28;20537;-55
2022/05/06 02:48:15;;;;;;;0.70;0.70;;;;;;;9.27;100.00;100951.50;5053924;28;20526;-55
2022/05/06 02:50:42;;;;;;;0.87;0.87;;;;;;;9.17;100.00;100950.75;5053884;28;21034;-54
2022/05/06 02:53:09;;;;;;;0.30;0.20;;;;;;;9.13;100.00;100952.56;5040639;28;20463;-54
2022/05/06 02:55:36;;;;;;;0.30;0.20;;;;;;;9.19;100.00;100954.28;5053618;28;20525;-54
2022/05/06 02:58:04;;;;;;;0.30;0.20;;;;;;;9.24;100.00;100943.59;5053818;28;20489;-55
2022/05/06 03:00:31;;;;;;;0.50;0.30;;;;;;;8.97;100.00;100943.03;5053797;28;20997;-54
2022/05/06 03:02:57;;;;;;;0.30;0.20;;;;;;;8.94;100.00;100945.72;5053644;28;20447;-54
2022/05/06 03:05:24;;;;;;;0.40;0.30;;;;;;;9.00;100.00;100955.38;5053575;28;20527;-54
2022/05/06 03:07:51;;;;;;;0.63;0.60;;;;;;;8.96;100.00;100941.28;5053739;28;20450;-54
2022/05/06 03:10:18;;;;;;;0.30;0.20;;;;;;;8.78;100.00;100947.66;5053523;28;20973;-54
2022/05/06 03:12:47;;;;;;;0.50;0.50;;;;;;;8.86;100.00;100942.28;5052839;28;20791;-54
2022/05/06 03:15:15;;;;;;;0.30;0.20;;;;;;;8.79;100.00;100951.19;5053404;28;20471;-54
2022/05/06 03:17:42;;;;;;;1.10;1.10;;;;;;;8.58;100.00;100954.94;5053681;28;20510;-54
2022/05/06 03:20:09;;;;;;;3.00;0.60;;;;;;;8.72;100.00;100957.44;5053274;28;20903;-54
2022/05/06 03:22:40;;;;;;;1.07;1.07;;;;;;;8.75;100.00;100955.63;5022477;28;20451;-54
2022/05/06 03:25:09;;;;;;;0.30;0.20;;;;;;;8.65;100.00;100961.06;5053295;28;20520;-54
2022/05/06 03:30:21;;;;;;;1.90;1.07;;;;;;;8.45;100.00;100961.22;5053648;28;20439;-54
2022/05/06 03:32:48;;;;;;;0.30;0.20;;;;;;;8.45;100.00;100958.59;5053004;28;20482;-54
2022/05/06 03:35:15;;;;;;;0.30;0.20;;;;;;;8.27;100.00;100949.88;5066372;28;20494;-54
2022/05/06 03:37:42;;;;;;;0.30;0.20;;;;;;;8.51;100.00;100946.19;5039968;28;20443;-54
2022/05/06 03:40:09;;;;;;;75.23;2.73;;;;;;;8.38;100.00;100952.47;5052897;28;20816;-55
2022/05/06 03:42:36;;;;;;;0.40;0.33;;;;;;;8.46;100.00;100947.97;5046244;28;20829;-54
2022/05/06 03:45:03;;;;;;;0.30;0.20;;;;;;;8.56;100.00;100946.13;5046280;28;20521;-55
2022/05/06 03:47:30;;;;;;;0.30;0.20;;;;;;;8.26;100.00;100953.44;5053164;28;20490;-54
2022/05/06 03:52:41;;;;;;;0.30;0.20;;;;;;;8.27;100.00;100959.59;5033187;28;20447;-54
2022/05/06 03:55:08;;;;;;;0.30;0.20;;;;;;;8.30;100.00;100963.09;5049334;28;20543;-54
2022/05/06 03:57:35;;;;;;;0.43;0.43;;;;;;;8.14;100.00;100950.00;5052770;28;20500;-54
2022/05/06 04:00:02;;;;;;;0.60;0.60;;;;;;;8.08;100.00;100956.19;5053116;28;20450;-54
2022/05/06 04:02:30;;;;;;;0.40;0.33;;;;;;;8.00;100.00;100950.97;5034955;28;20509;-54
2022/05/06 04:04:57;;;;;;;0.30;0.20;;;;;;;8.15;100.00;100959.69;5052478;28;20813;-54
2022/05/06 04:07:23;;;;;;;1.60;1.60;;;;;;;7.99;100.00;100957.16;5052297;28;20490;-54
2022/05/06 04:09:50;;;;;;;0.30;0.20;;;;;;;8.02;100.00;100956.25;5052512;28;20459;-54
2022/05/06 04:12:17;;;;;;;0.30;0.20;;;;;;;7.94;100.00;100960.72;5052569;28;20454;-54
2022/05/06 04:14:44;;;;;;;0.30;0.20;;;;;;;7.95;100.00;100957.22;5052550;28;20497;-54
2022/05/06 04:17:11;;;;;;;0.30;0.20;;;;;;;7.97;100.00;100960.72;5052372;28;20478;-54
2022/05/06 04:23:28;;;;;;;0.30;0.20;;;;;;;7.96;100.00;100964.25;5052177;28;20457;-54
2022/05/06 04:25:17;;;;;;;0.30;0.20;;;;;;;8.02;100.00;100965.09;5031324;28;20537;-54
2022/05/06 04:27:44;;;;;;;0.30;0.20;;;;;;;8.10;100.00;100965.03;5048682;28;20522;-54
2022/05/06 04:30:11;;;;;;;0.30;0.20;;;;;;;8.01;100.00;100973.03;5052221;28;20522;-54
2022/05/06 04:32:38;;;;;;;0.30;0.20;;;;;;;8.43;100.00;100977.16;5052249;28;20446;-55
2022/05/06 04:35:06;;;;;;;0.30;0.20;;;;;;;8.76;100.00;100985.66;5064244;28;20470;-54
2022/05/06 04:37:32;;;;;;;0.30;0.20;;;;;;;8.51;100.00;100995.63;5039760;28;20513;-54
2022/05/06 04:39:59;;;;;;;0.30;0.20;;;;;;;8.45;100.00;100990.38;5052081;28;20898;-54
2022/05/06 04:42:26;;;;;;;0.30;0.20;;;;;;;8.40;100.00;100997.50;5046379;28;20491;-54
2022/05/06 04:44:53;;;;;;;0.30;0.20;;;;;;;8.61;100.00;101002.59;5044385;28;20446;-54
2022/05/06 04:47:19;;;;;;;0.30;0.20;;;;;;;9.22;100.00;101001.09;5051955;28;20514;-55
2022/05/06 04:49:46;;;;;;;0.33;0.23;;;;;;;9.59;100.00;101001.50;5051837;28;20501;-54
2022/05/06 04:52:12;;;;;;;0.30;0.20;;;;;;;10.33;100.00;101002.25;5045817;28;20497;-54
2022/05/06 04:54:39;;;;;;;0.30;0.20;;;;;;;10.87;99.67;100999.53;5044928;28;20443;-54
2022/05/06 04:57:06;;;;;;;0.40;0.30;;;;;;;11.38;97.34;101002.97;5051712;28;20501;-54
2022/05/06 04:59:33;;;;;;;0.30;0.20;;;;;;;11.76;95.18;101011.91;5051549;28;20948;-55
2022/05/06 05:02:00;;;;;;;0.40;0.30;;;;;;;11.78;95.63;101002.97;5051920;28;20454;-54
2022/05/06 05:04:30;;;;;;;0.40;0.40;;;;;;;12.40;94.80;101011.34;5051463;28;20451;-54
2022/05/06 05:06:57;;;;;;;0.40;0.30;;;;;;;12.20;95.59;101012.72;5032134;28;20558;-54
2022/05/06 05:09:24;;;;;;;0.90;0.90;;;;;;;12.52;94.42;101018.19;5044854;28;20458;-55
2022/05/06 05:11:51;;;;;;;0.77;0.77;;;;;;;12.84;93.92;101012.00;5051663;28;20508;-54
2022/05/06 05:14:17;;;;;;;0.30;0.20;;;;;;;13.25;93.64;101010.91;5051371;28;20458;-55
2022/05/06 05:16:44;;;;;;;0.40;0.40;;;;;;;13.54;92.38;101010.09;5051792;28;20519;-54
2022/05/06 05:19:11;;;;;;;0.30;0.20;;;;;;;13.71;91.46;101014.09;5051806;28;20450;-55
2022/05/06 05:21:37;;;;;;;0.50;0.50;;;;;;;13.95;89.60;101018.66;5044293;28;20448;-55
2022/05/06 05:24:04;;;;;;;0.67;0.67;;;;;;;13.92;88.33;101016.97;5046038;28;20553;-55
2022/05/06 05:26:31;;;;;;;0.40;0.30;;;;;;;14.03;88.79;101013.09;5051165;28;20928;-55
2022/05/06 05:28:59;;;;;;;0.30;0.20;;;;;;;14.10;89.04;101023.53;5051495;28;20865;-55
2022/05/06 05:31:26;;;;;;;0.30;0.20;;;;;;;14.35;87.97;101020.94;5051909;28;20450;-55
2022/05/06 05:33:53;;;;;;;0.80;0.80;;;;;;;14.20;88.16;101024.13;5053819;28;20453;-55
2022/05/06 05:36:19;;;;;;;0.50;0.50;;;;;;;14.46;86.97;101021.53;5053362;28;20478;-55
2022/05/06 05:38:46;;;;;;;0.40;0.40;;;;;;;14.55;85.83;101020.34;5041585;28;20452;-54
2022/05/06 05:41:12;;;;;;;6.93;1.07;;;;;;;14.76;85.54;101024.09;5054939;28;20581;-55
2022/05/06 05:49:09;;;;;;;2.40;1.03;;;;;;;14.70;85.59;101033.22;5035403;28;20493;-55
2022/05/06 05:51:36;;;;;;;0.40;0.40;;;;;;;14.80;85.02;101033.75;5048389;28;20482;-55
2022/05/06 05:54:02;;;;;;;0.40;0.30;;;;;;;14.63;85.06;101033.47;5042633;28;20450;-54
2022/05/06 05:56:30;;;;;;;0.40;0.30;;;;;;;15.18;83.70;101031.56;5054753;28;20493;-55
2022/05/06 05:58:56;;;;;;;0.40;0.30;;;;;;;15.34;83.71;101035.44;5055239;28;20450;-55
2022/05/06 06:01:23;;;;;;;0.30;0.20;;;;;;;15.53;82.10;101036.53;5054897;28;20450;-55
2022/05/06 06:03:50;;;;;;;0.30;0.20;;;;;;;15.72;82.06;101030.50;5054929;28;20447;-55
2022/05/06 06:06:16;;;;;;;0.30;0.20;;;;;;;15.94;80.43;101035.00;5054643;28;20904;-55
2022/05/06 06:08:43;;;;;;;0.70;0.70;;;;;;;15.68;80.88;101032.44;5054934;28;20458;-55
2022/05/06 06:11:10;;;;;;;0.80;0.80;;;;;;;15.48;82.80;101030.44;5053661;28;20596;-55
2022/05/06 06:13:37;;;;;;;0.40;0.20;;;;;;;15.83;82.10;101029.16;5054847;28;20451;-55
2022/05/06 06:16:04;;;;;;;0.40;0.30;;;;;;;15.75;82.01;101033.06;5054791;28;20466;-55
2022/05/06 06:18:31;;;;;;;0.70;0.70;;;;;;;15.81;82.28;101032.84;5054731;28;20443;-55
2022/05/06 06:20:57;;;;;;;0.70;0.50;;;;;;;15.66;83.53;101034.28;5053243;28;20454;-55
2022/05/06 06:23:24;;;;;;;0.60;0.60;;;;;;;15.59;81.83;101033.63;5043261;28;20457;-55
2022/05/06 06:25:56;;;;;;;0.30;0.20;;;;;;;16.13;81.35;101034.25;5054628;28;20459;-55
2022/05/06 06:28:23;;;;;;;1.90;0.77;;;;;;;16.11;81.65;101030.75;5054529;28;20490;-55
2022/05/06 06:30:50;;;;;;;0.40;0.20;;;;;;;15.44;82.93;101034.16;5054651;28;20481;-55
2022/05/06 06:33:16;;;;;;;3.13;0.70;;;;;;;15.46;82.95;101042.16;5054562;28;20944;-55
2022/05/06 06:35:43;;;;;;;0.30;0.20;;;;;;;15.87;81.52;101038.81;5063789;28;20459;-55
2022/05/06 06:38:10;;;;;;;1.17;1.17;;;;;;;15.54;82.13;101042.75;5045526;28;20447;-55
2022/05/06 06:40:36;;;;;;;0.30;0.20;;;;;;;15.55;83.83;101048.06;5054175;28;20509;-55
2022/05/06 06:43:04;;;;;;;0.30;0.20;;;;;;;16.02;81.46;101039.16;5043155;28;20976;-55
2022/05/06 06:45:31;;;;;;;0.40;0.30;;;;;;;15.63;82.96;101029.94;5052060;28;20471;-55
2022/05/06 06:47:58;;;;;;;0.30;0.20;;;;;;;15.66;83.00;101032.50;5052908;28;20604;-55
2022/05/06 06:50:25;;;;;;;0.40;0.20;;;;;;;15.64;83.97;101034.34;5054290;28;20493;-55
2022/05/06 06:52:52;;;;;;;0.30;0.20;;;;;;;15.47;82.88;101042.09;5043191;28;20452;-55
2022/05/06 06:55:19;;;;;;;0.30;0.20;;;;;;;15.56;83.48;101036.41;5052180;28;20890;-55
2022/05/06 06:57:45;;;;;;;0.73;0.73;;;;;;;15.60;83.29;101034.50;5054048;28;20477;-55
2022/05/06 07:00:12;;;;;;;0.30;0.20;;;;;;;16.02;83.59;101036.47;5054012;28;20882;-55
2022/05/06 07:02:40;;;;;;;1.53;1.47;;;;;;;15.93;82.33;101027.88;5054228;28;20550;-55
2022/05/06 07:05:07;;;;;;;1.43;1.40;;;;;;;16.35;79.74;101018.19;5053971;28;20470;-55
2022/05/06 07:13:24;;;;;;;0.40;0.30;;;;;;;16.34;78.46;101027.19;5034246;28;20539;-55
2022/05/06 07:15:51;;;;;;;0.40;0.20;;;;;;;16.76;77.34;101030.81;5047604;28;20521;-55
2022/05/06 07:18:18;;;;;;;0.30;0.20;;;;;;;17.04;77.45;101035.88;5054022;28;20517;-55
2022/05/06 07:20:44;;;;;;;0.73;0.67;;;;;;;17.61;76.36;101036.03;5053187;28;20500;-55
2022/05/06 07:23:11;;;;;;;0.40;0.40;;;;;;;17.23;75.83;101045.78;5040760;28;20443;-55
2022/05/06 07:25:38;;;;;;;0.40;0.20;;;;;;;17.18;76.55;101033.44;5053471;28;20482;-55
2022/05/06 07:28:06;;;;;;;0.50;0.50;;;;;;;17.53;74.83;101038.16;5053907;28;20517;-55
2022/05/06 07:30:32;;;;;;;1.43;0.60;;;;;;;17.65;74.79;101029.56;5053485;28;20521;-55
2022/05/06 07:32:59;;;;;;;0.63;0.63;;;;;;;17.54;74.48;101030.03;5053589;28;20447;-55
2022/05/06 07:35:26;;;;;;;0.70;0.70;;;;;;;17.43;74.55;101033.22;5065089;28;20461;-55
2022/05/06 07:37:52;;;;;;;0.40;0.30;;;;;;;17.91;74.72;101040.00;5041772;28;20795;-55
2022/05/06 07:40:19;;;;;;;0.40;0.20;;;;;;;17.89;76.04;101043.72;5053359;28;20446;-55
2022/05/06 07:42:47;;;;;;;0.40;0.20;;;;;;;18.50;72.15;101036.28;5044807;28;20825;-55
2022/05/06 07:45:13;;;;;;;0.50;0.50;;;;;;;17.88;74.34;101039.28;5048503;28;20498;-55
2022/05/06 07:47:40;;;;;;;0.40;0.30;;;;;;;18.38;72.51;101034.19;5052825;28;20927;-55
2022/05/06 07:50:20;;;;;;;0.40;0.20;;;;;;;18.16;72.24;101033.47;5052744;28;20454;-55
2022/05/06 07:52:49;;;;;;;0.50;0.30;;;;;;;18.32;73.74;101032.66;5042568;28;20482;-55
2022/05/06 07:55:19;;;;;;;0.40;0.30;;;;;;;18.46;71.29;101029.28;5050043;28;20471;-55
2022/05/06 07:57:46;;;;;;;1.27;1.13;;;;;;;18.32;70.47;101034.47;5052981;28;20443;-55
2022/05/06 08:00:13;;;;;;;0.90;0.90;;;;;;;18.31;70.85;101027.34;5052705;28;20459;-55
2022/05/06 08:05:27;;;;;;;0.40;0.20;;;;;;;18.57;66.67;101029.63;5033211;28;20513;-55
2022/05/06 08:07:55;;;;;;;0.50;0.40;;;;;;;19.02;65.43;101024.69;5047407;28;20502;-55
2022/05/06 08:10:22;;;;;;;0.40;0.20;;;;;;;18.94;66.20;101025.09;5052349;28;20462;-55
2022/05/06 08:12:48;;;;;;;0.40;0.20;;;;;;;18.72;67.54;101027.13;5052323;28;20508;-55
2022/05/06 08:15:15;;;;;;;1.10;1.10;;;;;;;18.40;65.96;101028.72;5052429;28;20501;-55
2022/05/06 08:17:42;;;;;;;8.53;1.23;;;;;;;18.63;65.78;101021.25;5052479;28;20443;-55
2022/05/06 08:20:09;;;;;;;0.63;0.63;;;;;;;18.53;65.28;101027.16;5052271;28;20949;-55
2022/05/06 08:22:36;;;;;;;0.40;0.37;;;;;;;18.76;65.82;101023.34;5039429;28;20447;-54
2022/05/06 08:25:06;;;;;;;0.40;0.20;;;;;;;19.15;65.38;101023.09;5052064;28;20540;-54
2022/05/06 08:27:53;;;;;;;0.40;0.20;;;;;;;19.23;63.16;101026.28;5052173;28;20497;-54
2022/05/06 08:30:20;;;;;;;2.30;2.20;;;;;;;19.47;62.28;101024.13;5052311;28;20450;-54
2022/05/06 08:32:47;;;;;;;0.40;0.30;;;;;;;19.48;61.99;101031.25;5052156;28;20482;-54
2022/05/06 08:35:14;;;;;;;0.40;0.30;;;;;;;19.55;58.63;101029.13;5065516;28;20466;-54
2022/05/06 08:37:46;;;;;;;0.60;0.60;;;;;;;19.61;59.14;101029.69;5045210;28;20535;-54
2022/05/06 08:40:24;;;;;;;0.40;0.20;;;;;;;19.87;57.09;101027.34;5046083;28;20512;-54
2022/05/06 08:42:52;;;;;;;0.40;0.20;;;;;;;19.56;54.93;101030.84;5042753;28;20529;-54
2022/05/06 08:50:58;;;;;;;0.40;0.20;;;;;;;18.82;49.76;101026.59;5040387;28;20450;-54
2022/05/06 08:53:34;;;;;;;0.40;0.20;;;;;;;18.77;49.37;101025.06;5038681;28;20451;-54
2022/05/06 08:56:04;;;;;;;0.40;0.30;;;;;;;18.93;51.22;101026.06;5051829;28;21032;-54
2022/05/06 08:58:37;;;;;;;0.40;0.20;;;;;;;18.48;51.28;101034.59;5052018;28;20447;-54
2022/05/06 09:01:08;;;;;;;0.40;0.30;;;;;;;18.69;52.17;101030.00;5051956;28;20522;-54
2022/05/06 09:03:43;;;;;;;0.40;0.20;;;;;;;18.32;51.48;101021.00;5032451;28;20479;-54
2022/05/06 09:06:20;;;;;;;0.40;0.20;;;;;;;18.29;52.02;101023.84;5045664;28;21010;-54
2022/05/06 09:08:49;;;;;;;0.50;0.40;;;;;;;18.45;52.33;101018.59;5051662;28;20577;-54
2022/05/06 09:12:40;;;;;;;0.40;0.20;;;;;;;18.84;51.84;101021.13;5052882;28;20451;-54
2022/05/06 09:14:13;;;;;;;0.40;0.20;;;;;;;19.10;51.00;101019.78;5055870;28;20878;-54
2022/05/06 09:16:40;;;;;;;0.43;0.40;;;;;;;19.50;50.04;101014.03;5035989;28;20494;-54
2022/05/06 09:19:22;;;;;;;0.40;0.20;;;;;;;19.58;49.06;101012.75;5047960;28;20446;-55
2022/05/06 09:22:01;;;;;;;0.40;0.20;;;;;;;19.21;49.85;101017.41;5046675;28;20529;-54
2022/05/06 09:24:29;;;;;;;0.40;0.20;;;;;;;19.34;47.90;101020.34;5053040;28;20523;-54
2022/05/06 09:27:05;;;;;;;0.40;0.20;;;;;;;19.59;48.46;101023.47;5055397;28;20494;-53
2022/05/06 09:29:45;;;;;;;0.40;0.30;;;;;;;19.45;45.97;101021.47;5055584;28;20450;-54
2022/05/06 09:32:16;;;;;;;0.40;0.20;;;;;;;19.69;46.75;101016.63;5055434;28;20451;-54
2022/05/06 09:34:45;;;;;;;0.40;0.20;;;;;;;20.10;49.08;101016.16;5064622;28;20442;-54
2022/05/06 09:37:35;;;;;;;0.40;0.20;;;;;;;20.17;49.90;101019.38;5043887;28;20455;-54
2022/05/06 09:40:04;;;;;;;0.40;0.30;;;;;;;20.20;50.39;101024.59;5048166;28;20540;-54
2022/05/06 09:42:32;;;;;;;0.40;0.20;;;;;;;20.05;48.24;101023.66;5048978;28;20430;-54
2022/05/06 09:45:01;;;;;;;0.40;0.20;;;;;;;20.03;46.58;101017.47;5048602;28;20955;-55
2022/05/06 09:47:28;;;;;;;0.40;0.20;;;;;;;19.82;46.75;101025.78;5035213;28;20483;-54
2022/05/06 09:49:55;;;;;;;0.43;0.30;;;;;;;20.41;47.51;101026.06;5035694;28;20452;-54
2022/05/06 09:52:21;;;;;;;0.40;0.20;;;;;;;20.47;46.36;101020.34;5047949;28;20494;-54
2022/05/06 09:54:48;;;;;;;0.40;0.20;;;;;;;20.26;45.44;101014.31;5048968;28;20538;-54
2022/05/06 09:57:18;;;;;;;0.40;0.20;;;;;;;20.17;43.94;101016.69;5055087;28;20474;-54
2022/05/06 09:59:46;;;;;;;0.50;0.50;;;;;;;20.33;44.49;101022.94;5055062;28;20447;-54
2022/05/06 10:02:14;;;;;;;0.40;0.20;;;;;;;20.34;44.51;101020.16;5055012;28;20473;-54
2022/05/06 10:04:43;;;;;;;1.70;1.60;;;;;;;20.39;42.69;101018.06;5054765;28;20450;-54
2022/05/06 10:07:12;;;;;;;0.83;0.83;;;;;;;20.57;43.68;101012.59;5054980;28;20537;-54
2022/05/06 10:09:51;;;;;;;0.40;0.20;;;;;;;20.46;41.94;101012.34;5053327;28;20864;-55
2022/05/06 10:12:20;;;;;;;0.40;0.20;;;;;;;20.50;41.62;101009.38;5054747;28;20912;-54
2022/05/06 10:14:47;;;;;;;0.40;0.30;;;;;;;20.61;41.95;101006.91;5054880;28;20451;-54
2022/05/06 10:17:53;;;;;;;0.50;0.50;;;;;;;20.70;43.13;101019.03;5054849;28;20867;-54
2022/05/06 10:20:43;;;;;;;0.40;0.20;;;;;;;20.64;41.55;101008.56;5035761;28;20481;-54
2022/05/06 10:23:15;;;;;;;0.40;0.20;;;;;;;20.78;41.84;101008.59;5041628;28;20450;-54
2022/05/06 10:25:42;;;;;;;0.40;0.20;;;;;;;20.88;41.62;101007.09;5054603;28;20540;-54
2022/05/06 10:34:14;;;;;;;0.40;0.20;;;;;;;20.96;41.86;101001.22;5058368;28;20883;-54
2022/05/06 10:36:47;;;;;;;0.40;0.20;;;;;;;21.11;42.24;101004.84;5050788;28;20472;-54
2022/05/06 10:39:32;;;;;;;0.40;0.20;;;;;;;21.18;40.51;100998.09;5054093;28;20438;-54
2022/05/06 10:42:12;;;;;;;0.40;0.20;;;;;;;21.22;41.35;100995.09;5051230;28;20963;-54
2022/05/06 10:44:41;;;;;;;0.40;0.20;;;;;;;21.31;40.93;100987.44;5045013;28;20481;-54
2022/05/06 10:47:18;;;;;;;0.40;0.20;;;;;;;21.23;42.95;100993.25;5054183;28;20461;-54
2022/05/06 10:49:52;;;;;;;0.50;0.47;;;;;;;20.95;42.39;100989.53;5054005;28;20833;-54
2022/05/06 10:52:24;;;;;;;0.60;0.60;;;;;;;21.29;44.71;100982.13;5047291;28;20444;-54
2022/05/06 10:54:55;;;;;;;0.40;0.20;;;;;;;21.11;43.16;100994.03;5047589;28;20446;-54
2022/05/06 10:57:23;;;;;;;0.40;0.20;;;;;;;21.33;42.24;100989.06;5053896;28;20447;-54
2022/05/06 11:00:03;;;;;;;0.40;0.20;;;;;;;21.58;42.74;100983.88;5053849;28;20576;-54
2022/05/06 11:02:32;;;;;;;0.50;0.30;;;;;;;21.01;44.51;100991.03;5053842;28;20865;-54
2022/05/06 11:05:02;;;;;;;0.40;0.20;;;;;;;21.66;43.74;100979.81;5053763;28;20906;-54
2022/05/06 11:07:31;;;;;;;0.40;0.30;;;;;;;21.39;43.14;100977.00;5053798;28;20461;-54
2022/05/06 11:09:58;;;;;;;0.40;0.27;;;;;;;21.50;43.71;100977.19;5053644;28;20458;-55
2022/05/06 11:12:41;;;;;;;0.40;0.20;;;;;;;21.26;43.90;100971.50;5053561;28;20454;-54
2022/05/06 11:15:14;;;;;;;0.40;0.20;;;;;;;21.11;43.06;100973.28;5033947;28;20475;-55
2022/05/06 11:17:43;;;;;;;0.40;0.23;;;;;;;21.19;43.84;100978.19;5048909;28;20493;-54
2022/05/06 11:20:31;;;;;;;0.40;0.20;;;;;;;21.42;43.13;100966.00;5053671;28;20446;-54
2022/05/06 11:23:05;;;;;;;0.40;0.30;;;;;;;21.47;43.81;100982.78;5039349;28;20443;-54
2022/05/06 11:25:35;;;;;;;0.40;0.20;;;;;;;21.11;43.03;100981.41;5053604;28;20471;-54
2022/05/06 11:28:12;;;;;;;0.40;0.30;;;;;;;21.32;44.11;100972.94;5033526;28;20909;-54
2022/05/06 11:30:44;;;;;;;0.40;0.20;;;;;;;21.05;42.76;100972.78;5048750;28;20422;-54
2022/05/06 11:33:21;;;;;;;0.40;0.30;;;;;;;21.26;43.44;100966.09;5053160;28;20477;-54
2022/05/06 11:35:50;;;;;;;0.40;0.20;;;;;;;21.27;44.78;100965.13;5062232;28;20459;-55
2022/05/06 11:38:48;;;;;;;0.97;0.87;;;;;;;20.92;44.04;100968.09;5044855;28;20446;-54
2022/05/06 11:41:17;;;;;;;0.40;0.30;;;;;;;21.24;44.63;100962.56;4999139;28;21025;-54
2022/05/06 11:43:45;;;;;;;0.40;0.20;;;;;;;20.98;42.52;100966.88;5039741;28;20450;-54
2022/05/06 11:49:06;;;;;;;0.50;0.40;;;;;;;21.06;44.43;100952.88;5033041;28;20498;-54
2022/05/06 11:51:38;;;;;;;0.40;0.20;;;;;;;21.10;43.75;100946.31;5046081;28;20520;-54
2022/05/06 11:54:06;;;;;;;0.40;0.20;;;;;;;21.50;42.86;100942.88;5039621;28;20450;-54
2022/05/06 11:56:36;;;;;;;0.87;0.87;;;;;;;21.29;43.07;100944.25;5052599;28;20844;-54
2022/05/06 11:59:05;;;;;;;0.40;0.20;;;;;;;21.95;42.17;100937.31;5052640;28;20966;-54
2022/05/06 12:01:33;;;;;;;0.40;0.20;;;;;;;22.09;42.10;100946.31;5052501;28;20956;-55
2022/05/06 12:04:01;;;;;;;0.40;0.20;;;;;;;22.09;42.86;100943.59;5052707;28;20529;-55
2022/05/06 12:06:38;;;;;;;0.40;0.20;;;;;;;21.72;43.32;100938.81;5035389;28;20466;-54
2022/05/06 12:09:10;;;;;;;0.40;0.40;;;;;;;21.93;44.07;100945.56;5052723;28;20494;-54
2022/05/06 12:11:40;;;;;;;0.40;0.23;;;;;;;21.53;42.40;100942.72;5052527;28;20443;-55
2022/05/06 12:14:09;;;;;;;0.50;0.30;;;;;;;21.50;42.52;100940.19;5052445;28;20446;-54
2022/05/06 12:16:36;;;;;;;0.73;0.50;;;;;;;21.24;43.28;100939.09;5032482;28;20499;-54